Aérodrome :
LOGIN :

S'inscrire | Disclaimer

   EN    FR    IT 

 










Légende :    VFR   VFR Marginal   IFR   IFR Intensif   IFR Très Intensif
Visi : 
Plafond : 
>= 8 km
>= 3000ft
5 à 8 km
1000 à 3000 ft
1500m à 5 km
500 à 1000 ft
800 à 1500m
200 à 500 ft
< 800m
< 200 ft
Symboles :   Orages  Brouillard  Fortes neiges  Fortes précipitations  Vent > 20 kt
SIGMETs :   Divers  Orages  Givrage  Turbulence  Onde Orograph.  Cendres Volcan.







- Altitude de l'aérodrome : 3 ft
- Code IATA : DHR


EHKD - Den Helder De Kooy

DERNIER METAR :
  • 191355Z AUTO 03011KT 010V070 9999 NCD 18/12 Q1029 BLU 04008KT CAVOK

METARs EXPIRÉS :
  • 191325Z AUTO 04011KT 9999 NCD 18/13 Q1029 BLU 04008KT CAVOK
  • 191255Z AUTO 05010KT 020V080 9999 NCD 19/12 Q1029 BLU 04008KT CAVOK
  • 191225Z AUTO 05009KT 010V080 9999 NCD 18/12 Q1030 BLU 04008KT CAVOK
  • 191155Z AUTO 03007KT 360V070 9999 NCD 17/12 Q1030 BLU 06010KT CAVOK
  • 191125Z AUTO 05008KT 010V070 9999 FEW280 17/11 Q1030 BLU 06010KT CAVOK

TAF TAF EHKD
Valide du 19 à 13h jusqu'au 20 à 01h UTC


191253Z 1913/2001 05009KT CAVOK
Pas de NOTAMs connus pour ce terrain.



MET'MAP, la Météo Aéronautique d'un coup d'oeil ! - Copyright ORBIFLY Décembre 2007 - Disclaimer

ORBIFLY MET'MAP TEAM :

Programmation & Développement : Alexandra Zaïnal
Conception & Développement : Baudouin d'Aumeries
Co-Programmation & Développement : Marc-Olivier Méhu
Soutien technique & logistique : Manuel Goepfert

Contact : metmap@orbifly.com




SOURCES & CREDITS :

   NOAA